createdAt,value
2023-01-27T00:00:53.262Z,3.39
2023-01-27T00:01:54.885Z,3.42
2023-01-27T00:02:56.428Z,3.48
2023-01-27T00:03:58.033Z,3.52
2023-01-27T00:04:59.709Z,3.60
2023-01-27T00:06:01.433Z,3.62
2023-01-27T00:07:03.076Z,3.68
2023-01-27T00:08:04.738Z,3.68
2023-01-27T00:09:06.327Z,3.72
2023-01-27T00:10:09.577Z,3.75
2023-01-27T00:11:29.536Z,3.78
2023-01-27T00:12:49.845Z,3.77
2023-01-27T00:13:51.443Z,3.77
2023-01-27T00:14:53.019Z,3.75
2023-01-27T00:15:55.412Z,3.68
2023-01-27T00:16:57.119Z,3.68
2023-01-27T00:17:58.735Z,3.68
2023-01-27T00:19:00.257Z,3.68
2023-01-27T00:20:03.923Z,3.68
2023-01-27T00:21:24.178Z,3.72
2023-01-27T00:22:44.352Z,3.86
2023-01-27T00:24:04.364Z,3.96
2023-01-27T00:25:06.203Z,3.94
2023-01-27T00:26:11.959Z,3.96
2023-01-27T00:27:13.575Z,3.97
2023-01-27T00:28:23.000Z,3.97
2023-01-27T00:29:24.615Z,3.95
2023-01-27T00:30:26.097Z,3.89
2023-01-27T00:31:46.183Z,3.90
2023-01-27T00:33:06.414Z,3.87
2023-01-27T00:34:10.993Z,3.89
2023-01-27T00:35:12.775Z,3.94
2023-01-27T00:36:14.352Z,3.97
2023-01-27T00:37:16.535Z,3.98
2023-01-27T00:38:18.075Z,4.02
2023-01-27T00:39:19.607Z,4.02
2023-01-27T00:40:21.170Z,4.01
2023-01-27T00:41:23.498Z,4.03
2023-01-27T00:42:25.140Z,4.04
2023-01-27T00:43:26.665Z,4.03
2023-01-27T00:44:28.413Z,4.02
2023-01-27T00:45:48.670Z,4.06
2023-01-27T00:46:50.588Z,4.10
2023-01-27T00:47:52.967Z,4.10
2023-01-27T00:48:54.561Z,4.12
2023-01-27T00:49:56.133Z,4.11
2023-01-27T00:50:57.754Z,4.08
2023-01-27T00:51:59.271Z,4.08
2023-01-27T00:53:02.364Z,4.11
2023-01-27T00:54:05.117Z,4.13
2023-01-27T00:55:07.891Z,4.14
2023-01-27T00:56:09.866Z,4.08
2023-01-27T00:57:11.415Z,4.00
2023-01-27T00:58:13.408Z,3.94
2023-01-27T00:59:14.957Z,3.88
2023-01-27T01:00:17.335Z,3.81
2023-01-27T01:01:19.090Z,3.76
2023-01-27T01:02:20.634Z,3.77
2023-01-27T01:03:22.999Z,3.79
2023-01-27T01:04:24.566Z,3.73
2023-01-27T01:05:26.140Z,3.61
2023-01-27T01:06:28.094Z,3.56
2023-01-27T01:07:29.639Z,3.58
2023-01-27T01:08:33.189Z,3.61
2023-01-27T01:09:34.752Z,3.64
2023-01-27T01:10:38.961Z,3.65
2023-01-27T01:11:40.508Z,3.61
2023-01-27T01:12:42.042Z,3.57
2023-01-27T01:13:44.576Z,3.50
2023-01-27T01:14:46.201Z,3.42
2023-01-27T01:15:48.181Z,3.45
2023-01-27T01:16:49.741Z,3.40
2023-01-27T01:17:51.290Z,3.34
2023-01-27T01:18:53.401Z,3.33
2023-01-27T01:19:54.947Z,3.38
2023-01-27T01:20:56.484Z,3.47
2023-01-27T01:21:57.987Z,3.51
2023-01-27T01:22:59.539Z,3.58
2023-01-27T01:24:01.091Z,3.63
2023-01-27T01:25:02.673Z,3.68
2023-01-27T01:26:04.490Z,3.70
2023-01-27T01:27:06.041Z,3.68
2023-01-27T01:28:08.528Z,3.69
2023-01-27T01:29:10.052Z,3.69
2023-01-27T01:30:12.794Z,3.70
2023-01-27T01:31:18.079Z,3.75
2023-01-27T01:32:19.684Z,3.80
2023-01-27T01:33:21.463Z,3.83
2023-01-27T01:34:22.960Z,3.85
2023-01-27T01:35:25.280Z,3.86
2023-01-27T01:36:27.177Z,3.88
2023-01-27T01:37:28.798Z,3.92
2023-01-27T01:38:30.358Z,3.95
2023-01-27T01:39:32.319Z,3.98
2023-01-27T01:40:34.295Z,3.99
2023-01-27T01:41:35.882Z,4.00
2023-01-27T01:42:57.895Z,3.97
2023-01-27T01:43:59.564Z,3.90
2023-01-27T01:45:31.747Z,3.85
2023-01-27T01:46:33.326Z,3.82
2023-01-27T01:47:34.925Z,3.75
2023-01-27T01:49:02.654Z,3.69
2023-01-27T01:50:04.515Z,3.70
2023-01-27T01:51:18.273Z,3.74
2023-01-27T01:52:21.332Z,3.76
2023-01-27T01:53:29.458Z,3.79
2023-01-27T01:54:37.602Z,3.84
2023-01-27T01:55:40.804Z,3.90
2023-01-27T01:56:51.446Z,3.95
2023-01-27T01:57:53.348Z,4.01
2023-01-27T01:59:00.616Z,4.09
2023-01-27T02:00:07.106Z,4.13
2023-01-27T02:01:08.796Z,4.14
2023-01-27T02:02:18.192Z,4.14
2023-01-27T02:03:22.759Z,4.10
2023-01-27T02:04:31.965Z,4.07
2023-01-27T02:05:36.651Z,4.05
2023-01-27T02:06:45.716Z,4.05
2023-01-27T02:07:55.509Z,4.05
2023-01-27T02:08:57.236Z,4.02
2023-01-27T02:10:00.295Z,3.95
2023-01-27T02:11:01.899Z,3.86
2023-01-27T02:12:03.775Z,3.90
2023-01-27T02:13:05.334Z,3.94
2023-01-27T02:14:08.313Z,3.93
2023-01-27T02:15:11.305Z,3.93
2023-01-27T02:16:13.796Z,3.96
2023-01-27T02:17:15.782Z,3.93
2023-01-27T02:18:17.447Z,3.85
2023-01-27T02:19:42.473Z,3.72
2023-01-27T02:20:46.693Z,3.79
2023-01-27T02:21:51.133Z,3.84
2023-01-27T02:23:01.773Z,3.90
2023-01-27T02:24:12.297Z,3.94
2023-01-27T02:25:22.762Z,3.89
2023-01-27T02:26:34.568Z,3.94
2023-01-27T02:27:36.151Z,3.95
2023-01-27T02:28:37.707Z,3.94
2023-01-27T02:29:39.224Z,3.91
2023-01-27T02:30:40.811Z,3.93
2023-01-27T02:31:43.151Z,3.96
2023-01-27T02:32:44.790Z,4.00
2023-01-27T02:33:46.267Z,4.04
2023-01-27T02:34:48.028Z,3.98
2023-01-27T02:35:59.246Z,3.92
2023-01-27T02:37:06.135Z,3.88
2023-01-27T02:38:11.487Z,3.75
2023-01-27T02:39:15.455Z,3.64
2023-01-27T02:40:18.784Z,3.54
2023-01-27T02:41:20.236Z,3.49
2023-01-27T02:42:21.826Z,3.42
2023-01-27T02:43:23.474Z,3.35
2023-01-27T02:44:25.031Z,3.34
2023-01-27T02:45:26.866Z,3.25
2023-01-27T02:46:28.539Z,3.15
2023-01-27T02:47:30.175Z,3.10
2023-01-27T02:48:31.831Z,3.16
2023-01-27T02:49:33.393Z,3.28
2023-01-27T02:50:34.960Z,3.35
2023-01-27T02:51:36.565Z,3.28
2023-01-27T02:52:38.120Z,3.24
2023-01-27T02:53:40.404Z,3.17
2023-01-27T02:54:41.956Z,3.17
2023-01-27T02:55:43.514Z,3.18
2023-01-27T02:56:45.252Z,3.15
2023-01-27T02:57:46.851Z,3.15
2023-01-27T02:58:48.526Z,3.10
2023-01-27T02:59:50.258Z,3.14
2023-01-27T03:00:51.961Z,3.17
2023-01-27T03:01:53.607Z,3.22
2023-01-27T03:02:55.178Z,3.27
2023-01-27T03:03:56.703Z,3.30
2023-01-27T03:04:58.335Z,3.33
2023-01-27T03:06:00.003Z,3.38
2023-01-27T03:07:01.523Z,3.43
2023-01-27T03:08:03.145Z,3.47
2023-01-27T03:09:07.617Z,3.53
2023-01-27T03:10:10.201Z,3.56
2023-01-27T03:11:12.099Z,3.65
2023-01-27T03:12:22.828Z,3.74
2023-01-27T03:13:25.506Z,3.81
2023-01-27T03:14:45.468Z,3.83
2023-01-27T03:16:05.796Z,3.84
2023-01-27T03:17:25.975Z,3.84
2023-01-27T03:18:27.554Z,3.79
2023-01-27T03:19:29.152Z,3.75
2023-01-27T03:20:30.785Z,3.67
2023-01-27T03:21:32.339Z,3.63
2023-01-27T03:22:33.856Z,3.61
2023-01-27T03:23:35.528Z,3.56
2023-01-27T03:24:39.532Z,3.55
2023-01-27T03:25:45.951Z,3.58
2023-01-27T03:26:47.695Z,3.62
2023-01-27T03:27:50.029Z,3.67
2023-01-27T03:29:11.548Z,3.70
2023-01-27T03:30:13.210Z,3.75
2023-01-27T03:31:20.878Z,3.76
2023-01-27T03:32:28.039Z,3.78
2023-01-27T03:33:29.745Z,3.79
2023-01-27T03:34:31.382Z,3.82
2023-01-27T03:35:39.148Z,3.85
2023-01-27T03:36:59.737Z,3.88
2023-01-27T03:38:19.861Z,3.90
2023-01-27T03:39:39.747Z,3.93
2023-01-27T03:41:00.035Z,3.95
2023-01-27T03:42:20.161Z,3.95
2023-01-27T03:43:39.975Z,3.96
2023-01-27T03:45:00.136Z,3.96
2023-01-27T03:46:20.137Z,3.96
2023-01-27T03:47:21.740Z,3.80
2023-01-27T03:48:23.553Z,3.68
2023-01-27T03:49:25.216Z,3.66
2023-01-27T03:50:37.592Z,3.59
2023-01-27T03:51:39.515Z,3.61
2023-01-27T03:52:41.465Z,3.65
2023-01-27T03:53:43.062Z,3.62
2023-01-27T03:54:44.586Z,3.64
2023-01-27T03:55:47.032Z,3.65
2023-01-27T03:56:48.583Z,3.69
2023-01-27T03:57:50.118Z,3.72
2023-01-27T03:58:51.741Z,3.74
2023-01-27T03:59:53.298Z,3.72
2023-01-27T04:01:17.763Z,3.69
2023-01-27T04:02:37.853Z,3.72
2023-01-27T04:03:58.217Z,3.67
2023-01-27T04:05:18.179Z,3.61
2023-01-27T04:06:41.495Z,3.60
2023-01-27T04:07:43.060Z,3.62
2023-01-27T04:08:44.680Z,3.60
2023-01-27T04:09:46.235Z,3.49
2023-01-27T04:11:07.711Z,3.26
2023-01-27T04:12:10.163Z,2.95
2023-01-27T04:13:11.738Z,2.72
2023-01-27T04:14:13.538Z,2.60
2023-01-27T04:15:15.409Z,2.49
2023-01-27T04:16:19.927Z,2.51
2023-01-27T04:17:22.180Z,2.65
2023-01-27T04:18:23.713Z,2.73
2023-01-27T04:19:25.890Z,2.73
2023-01-27T04:20:27.677Z,2.72
2023-01-27T04:21:29.614Z,2.73
2023-01-27T04:22:31.582Z,2.87
2023-01-27T04:23:33.315Z,2.99
2023-01-27T04:24:34.978Z,3.08
2023-01-27T04:25:36.526Z,3.13
2023-01-27T04:26:38.548Z,3.22
2023-01-27T04:27:40.120Z,3.31
2023-01-27T04:28:44.678Z,3.38
2023-01-27T04:29:46.400Z,3.44
2023-01-27T04:30:48.029Z,3.50
2023-01-27T04:31:50.208Z,3.57
2023-01-27T04:32:51.839Z,3.65
2023-01-27T04:33:53.738Z,3.72
2023-01-27T04:34:55.365Z,3.78
2023-01-27T04:35:56.940Z,3.79
2023-01-27T04:36:58.804Z,3.78
2023-01-27T04:38:00.351Z,3.67
2023-01-27T04:39:01.988Z,3.39
2023-01-27T04:40:03.928Z,3.00
2023-01-27T04:41:05.640Z,2.53
2023-01-27T04:42:07.245Z,2.33
2023-01-27T04:43:11.556Z,2.23
2023-01-27T04:44:13.445Z,2.14
2023-01-27T04:45:16.267Z,2.28
2023-01-27T04:46:17.844Z,2.40
2023-01-27T04:47:19.351Z,2.52
2023-01-27T04:48:21.792Z,2.58
2023-01-27T04:49:23.486Z,2.54
2023-01-27T04:50:25.005Z,2.60
2023-01-27T04:51:27.267Z,2.71
2023-01-27T04:52:28.837Z,2.85
2023-01-27T04:53:30.415Z,2.97
2023-01-27T04:54:31.973Z,3.10
2023-01-27T04:55:33.579Z,3.19
2023-01-27T04:56:41.129Z,3.24
2023-01-27T04:57:42.649Z,3.27
2023-01-27T04:58:44.177Z,3.30
2023-01-27T04:59:45.695Z,3.33
2023-01-27T05:00:47.235Z,3.38
2023-01-27T05:01:48.845Z,3.42
2023-01-27T05:02:50.411Z,3.46
2023-01-27T05:03:51.988Z,3.41
2023-01-27T05:04:53.621Z,3.35
2023-01-27T05:05:55.170Z,3.39
2023-01-27T05:06:56.729Z,3.44
2023-01-27T05:08:05.963Z,3.50
2023-01-27T05:09:07.490Z,3.56
2023-01-27T05:10:09.809Z,3.54
2023-01-27T05:11:12.036Z,3.47
2023-01-27T05:12:13.565Z,3.39
2023-01-27T05:13:15.118Z,3.33
2023-01-27T05:14:16.763Z,3.38
2023-01-27T05:15:18.277Z,3.47
2023-01-27T05:16:23.725Z,3.54
2023-01-27T05:17:27.802Z,3.62
2023-01-27T05:18:29.354Z,3.76
2023-01-27T05:19:32.266Z,3.77
2023-01-27T05:20:34.142Z,3.79
2023-01-27T05:21:35.704Z,3.82
2023-01-27T05:22:37.211Z,3.88
2023-01-27T05:23:39.115Z,3.90
2023-01-27T05:24:41.043Z,3.90
2023-01-27T05:25:46.009Z,3.93
2023-01-27T05:26:47.616Z,3.97
2023-01-27T05:27:49.138Z,4.03
2023-01-27T05:28:52.246Z,4.04
2023-01-27T05:29:53.852Z,3.99
2023-01-27T05:31:08.788Z,3.93
2023-01-27T05:32:10.388Z,3.86
2023-01-27T05:33:11.994Z,3.86
2023-01-27T05:34:13.559Z,3.86
2023-01-27T05:35:15.433Z,3.83
2023-01-27T05:36:18.884Z,3.71
2023-01-27T05:37:20.546Z,3.59
2023-01-27T05:38:22.128Z,3.56
2023-01-27T05:39:23.681Z,3.52
2023-01-27T05:40:25.304Z,3.44
2023-01-27T05:41:31.024Z,3.37
2023-01-27T05:42:32.560Z,3.30
2023-01-27T05:43:36.493Z,3.22
2023-01-27T05:44:37.993Z,3.22
2023-01-27T05:45:39.553Z,3.20
2023-01-27T05:46:42.214Z,3.12
2023-01-27T05:47:43.763Z,3.05
2023-01-27T05:48:48.516Z,3.08
2023-01-27T05:49:50.052Z,3.15
2023-01-27T05:50:56.797Z,3.21
2023-01-27T05:51:58.353Z,3.25
2023-01-27T05:52:59.882Z,3.31
2023-01-27T05:54:02.013Z,3.41
2023-01-27T05:55:04.163Z,3.31
2023-01-27T05:56:06.563Z,3.16
2023-01-27T05:57:08.138Z,3.08
2023-01-27T05:58:09.714Z,3.10
2023-01-27T05:59:11.471Z,3.12
2023-01-27T06:00:13.566Z,3.15
2023-01-27T06:01:19.639Z,3.04
2023-01-27T06:02:22.774Z,2.69
2023-01-27T06:03:25.202Z,2.37
2023-01-27T06:04:26.903Z,2.28
2023-01-27T06:05:28.504Z,2.33
2023-01-27T06:06:32.006Z,2.48
2023-01-27T06:07:33.539Z,2.57
2023-01-27T06:08:36.131Z,2.68
2023-01-27T06:09:38.850Z,2.79
2023-01-27T06:10:40.455Z,2.85
2023-01-27T06:11:42.004Z,2.87
2023-01-27T06:12:43.530Z,2.97
2023-01-27T06:13:45.221Z,3.07
2023-01-27T06:14:46.810Z,3.08
2023-01-27T06:15:48.699Z,3.13
2023-01-27T06:16:50.370Z,3.22
2023-01-27T06:17:52.870Z,3.31
2023-01-27T06:18:54.527Z,3.41
2023-01-27T06:19:56.087Z,3.47
2023-01-27T06:21:02.241Z,3.52
2023-01-27T06:22:03.774Z,3.57
2023-01-27T06:23:06.685Z,3.61
2023-01-27T06:24:08.362Z,3.66
2023-01-27T06:25:10.048Z,3.70
2023-01-27T06:26:16.343Z,3.76
2023-01-27T06:27:17.907Z,3.80
2023-01-27T06:28:28.912Z,3.82
2023-01-27T06:29:30.952Z,3.88
2023-01-27T06:30:34.516Z,3.88
2023-01-27T06:31:36.172Z,3.74
2023-01-27T06:32:37.733Z,3.55
2023-01-27T06:33:39.618Z,3.48
2023-01-27T06:34:41.113Z,3.53
2023-01-27T06:35:42.793Z,3.58
2023-01-27T06:36:44.284Z,3.71
2023-01-27T06:37:45.889Z,3.85
2023-01-27T06:38:48.615Z,3.92
2023-01-27T06:39:50.159Z,3.96
2023-01-27T06:40:51.698Z,3.97
2023-01-27T06:41:53.201Z,3.98
2023-01-27T06:42:55.353Z,4.03
2023-01-27T06:43:56.964Z,4.07
2023-01-27T06:44:58.539Z,4.06
2023-01-27T06:46:00.372Z,4.09
2023-01-27T06:47:02.406Z,4.08
2023-01-27T06:48:04.245Z,4.02
2023-01-27T06:49:05.858Z,3.97
2023-01-27T06:50:09.318Z,3.77
2023-01-27T06:51:10.863Z,3.67
2023-01-27T06:52:12.472Z,3.68
2023-01-27T06:53:14.109Z,3.80
2023-01-27T06:54:16.236Z,3.89
2023-01-27T06:55:19.174Z,3.96
2023-01-27T06:56:20.699Z,4.02
2023-01-27T06:57:22.301Z,4.05
2023-01-27T06:58:24.644Z,4.10
2023-01-27T06:59:26.254Z,4.13
2023-01-27T07:00:27.889Z,4.20
2023-01-27T07:01:29.490Z,4.18
2023-01-27T07:02:31.157Z,4.18
2023-01-27T07:04:34.424Z,4.19
2023-01-27T07:05:36.091Z,4.18
2023-01-27T07:06:38.174Z,4.24
2023-01-27T07:07:40.085Z,4.28
2023-01-27T07:08:42.507Z,4.33
2023-01-27T07:09:52.318Z,4.36
2023-01-27T07:10:54.348Z,4.36
2023-01-27T07:11:56.141Z,4.35
2023-01-27T07:13:08.820Z,4.29
2023-01-27T07:14:10.735Z,4.31
2023-01-27T07:15:12.729Z,4.36
2023-01-27T07:16:14.351Z,4.38
2023-01-27T07:17:15.937Z,4.44
2023-01-27T07:18:17.542Z,4.48
2023-01-27T07:19:19.064Z,4.49
2023-01-27T07:20:20.787Z,4.52
2023-01-27T07:21:22.317Z,4.58
2023-01-27T07:22:23.891Z,4.77
2023-01-27T07:23:25.552Z,4.92
2023-01-27T07:24:27.137Z,4.94
2023-01-27T07:25:30.683Z,4.95
2023-01-27T07:26:32.255Z,4.94
2023-01-27T07:27:34.446Z,4.93
2023-01-27T07:28:35.975Z,4.93
2023-01-27T07:29:37.472Z,4.87
2023-01-27T07:30:39.393Z,4.69
2023-01-27T07:31:41.131Z,4.51
2023-01-27T07:32:42.748Z,4.50
2023-01-27T07:33:44.258Z,4.54
2023-01-27T07:34:45.880Z,4.54
2023-01-27T07:35:49.826Z,4.45
2023-01-27T07:36:51.973Z,3.83
2023-01-27T07:37:53.452Z,3.59
2023-01-27T07:38:55.031Z,3.62
2023-01-27T07:39:56.604Z,3.77
2023-01-27T07:40:58.631Z,3.90
2023-01-27T07:42:03.771Z,4.01
2023-01-27T07:43:05.323Z,4.10
2023-01-27T07:44:06.951Z,4.19
2023-01-27T07:45:09.588Z,4.25
2023-01-27T07:46:11.196Z,4.28
2023-01-27T07:47:12.845Z,4.28
2023-01-27T07:48:14.873Z,4.34
2023-01-27T07:49:16.448Z,4.31
2023-01-27T07:50:18.138Z,4.27
2023-01-27T07:51:19.754Z,4.23
2023-01-27T07:52:21.359Z,4.17
2023-01-27T07:53:22.981Z,4.14
2023-01-27T07:54:25.303Z,4.16
2023-01-27T07:55:27.083Z,4.18
2023-01-27T07:56:28.661Z,4.21
2023-01-27T07:57:30.237Z,4.27
2023-01-27T07:58:31.763Z,4.32
2023-01-27T07:59:33.455Z,4.35
2023-01-27T08:00:35.392Z,4.31
2023-01-27T08:01:37.591Z,4.25
2023-01-27T08:02:39.195Z,4.24
2023-01-27T08:03:40.768Z,4.23
2023-01-27T08:04:52.482Z,4.30
2023-01-27T08:05:54.973Z,4.39
2023-01-27T08:06:56.509Z,4.43
2023-01-27T08:07:59.080Z,4.47
2023-01-27T08:09:00.736Z,4.50
2023-01-27T08:10:02.298Z,4.52
2023-01-27T08:11:08.111Z,4.51
2023-01-27T08:12:09.713Z,4.55
2023-01-27T08:13:11.266Z,4.58
2023-01-27T08:14:12.812Z,4.53
2023-01-27T08:15:15.515Z,4.43
2023-01-27T08:16:18.731Z,4.43
2023-01-27T08:17:20.278Z,4.43
2023-01-27T08:18:21.813Z,4.41
2023-01-27T08:19:23.328Z,4.45
2023-01-27T08:20:27.203Z,4.46
2023-01-27T08:21:32.871Z,4.52
2023-01-27T08:22:34.423Z,4.58
2023-01-27T08:23:36.165Z,4.59
2023-01-27T08:24:37.729Z,4.48
2023-01-27T08:25:39.377Z,4.53
2023-01-27T08:26:41.014Z,4.57
2023-01-27T08:27:42.663Z,4.63
2023-01-27T08:28:44.440Z,4.63
2023-01-27T08:29:46.362Z,4.63
2023-01-27T08:30:48.398Z,4.65
2023-01-27T08:31:49.999Z,4.68
2023-01-27T08:32:51.591Z,4.70
2023-01-27T08:33:54.444Z,4.73
2023-01-27T08:34:56.079Z,4.75
2023-01-27T08:36:03.185Z,4.80
2023-01-27T08:37:05.908Z,4.85
2023-01-27T08:38:07.540Z,4.87
2023-01-27T08:39:10.417Z,4.90
2023-01-27T08:40:12.683Z,4.90
2023-01-27T08:41:17.048Z,4.93
2023-01-27T08:42:18.651Z,4.98
2023-01-27T08:43:20.899Z,4.98
2023-01-27T08:44:22.768Z,4.99
2023-01-27T08:45:24.383Z,4.97
2023-01-27T08:46:26.068Z,4.84
2023-01-27T08:47:27.653Z,4.84
2023-01-27T08:48:31.095Z,4.66
2023-01-27T08:49:32.699Z,4.61
2023-01-27T08:50:34.390Z,4.53
2023-01-27T08:51:35.931Z,4.55
2023-01-27T08:52:37.827Z,4.57
2023-01-27T08:53:39.628Z,4.52
2023-01-27T08:54:41.202Z,4.55
2023-01-27T08:55:42.989Z,4.59
2023-01-27T08:56:44.635Z,4.64
2023-01-27T08:57:46.203Z,4.71
2023-01-27T08:58:48.605Z,4.69
2023-01-27T08:59:50.156Z,4.72
2023-01-27T09:00:51.735Z,4.75
2023-01-27T09:01:53.248Z,4.76
2023-01-27T09:02:54.886Z,4.80
2023-01-27T09:03:56.493Z,4.81
2023-01-27T09:04:58.000Z,4.85
2023-01-27T09:05:59.949Z,4.89
2023-01-27T09:07:01.527Z,4.93
2023-01-27T09:08:04.032Z,4.95
2023-01-27T09:09:12.307Z,5.01
2023-01-27T09:10:15.678Z,5.05
2023-01-27T09:11:18.088Z,5.07
2023-01-27T09:12:19.814Z,5.15
2023-01-27T09:13:22.488Z,5.20
2023-01-27T09:14:24.075Z,5.04
2023-01-27T09:15:25.596Z,4.94
2023-01-27T09:16:27.188Z,4.88
2023-01-27T09:17:28.808Z,4.92
2023-01-27T09:18:30.416Z,4.98
2023-01-27T09:19:32.284Z,4.92
2023-01-27T09:20:37.061Z,4.90
2023-01-27T09:21:38.631Z,4.95
2023-01-27T09:22:41.228Z,4.98
2023-01-27T09:23:42.786Z,5.02
2023-01-27T09:24:44.664Z,4.99
2023-01-27T09:25:46.200Z,4.63
2023-01-27T09:26:47.801Z,4.33
2023-01-27T09:27:49.610Z,4.29
2023-01-27T09:28:51.123Z,4.35
2023-01-27T09:29:52.719Z,4.41
2023-01-27T09:30:57.945Z,4.47
2023-01-27T09:31:59.569Z,4.50
2023-01-27T09:33:01.644Z,4.50
2023-01-27T09:34:04.576Z,4.50
2023-01-27T09:35:06.536Z,4.56
2023-01-27T09:36:19.001Z,4.66
2023-01-27T09:37:20.634Z,4.70
2023-01-27T09:38:23.945Z,4.76
2023-01-27T09:39:26.638Z,4.77
2023-01-27T09:40:32.452Z,4.81
2023-01-27T09:41:36.790Z,4.85
2023-01-27T09:43:09.328Z,4.90
2023-01-27T09:44:13.827Z,4.70
2023-01-27T09:45:27.471Z,4.43
2023-01-27T09:46:38.070Z,4.23
2023-01-27T09:47:51.810Z,4.32
2023-01-27T09:49:20.226Z,4.31
2023-01-27T09:50:47.146Z,4.37
2023-01-27T09:52:11.628Z,4.45
2023-01-27T09:53:22.440Z,4.55
2023-01-27T09:54:33.083Z,4.60
2023-01-27T09:55:44.770Z,4.61
2023-01-27T09:57:16.729Z,4.63
2023-01-27T09:58:46.442Z,4.74
2023-01-27T09:59:50.923Z,4.80
2023-01-27T10:01:17.265Z,4.85
2023-01-27T10:02:30.972Z,4.83
2023-01-27T10:03:53.144Z,4.62
2023-01-27T10:05:36.667Z,4.27
2023-01-27T10:07:00.309Z,4.26
2023-01-27T10:08:40.814Z,4.14
2023-01-27T10:10:20.468Z,3.81
2023-01-27T10:11:33.059Z,3.79
2023-01-27T10:12:41.135Z,3.83
2023-01-27T10:14:05.894Z,3.89
2023-01-27T10:15:32.708Z,4.09
2023-01-27T10:16:37.176Z,4.19
2023-01-27T10:18:08.475Z,4.27
2023-01-27T10:19:15.690Z,4.45
2023-01-27T10:20:35.706Z,4.58
2023-01-27T10:21:43.817Z,4.65
2023-01-27T10:23:00.172Z,4.67
2023-01-27T10:24:18.370Z,4.59
2023-01-27T10:25:38.241Z,4.47
2023-01-27T10:26:45.949Z,4.49
2023-01-27T10:27:51.341Z,4.63
2023-01-27T10:29:03.192Z,4.72
2023-01-27T10:30:15.945Z,4.84
2023-01-27T10:31:17.789Z,4.93
2023-01-27T10:32:27.204Z,5.03
2023-01-27T10:33:54.423Z,5.12
2023-01-27T10:35:09.377Z,5.17
2023-01-27T10:36:21.860Z,5.24
2023-01-27T10:37:47.631Z,5.27
2023-01-27T10:39:21.103Z,5.21
2023-01-27T10:40:29.563Z,5.25
2023-01-27T10:41:31.108Z,5.21
2023-01-27T10:43:16.652Z,5.10
2023-01-27T10:44:22.086Z,5.16
2023-01-27T10:45:30.031Z,5.22
2023-01-27T10:46:41.531Z,5.33
2023-01-27T10:47:51.215Z,5.43
2023-01-27T10:49:23.995Z,5.49
2023-01-27T10:50:30.931Z,5.55
2023-01-27T10:51:37.779Z,5.59
2023-01-27T10:52:46.617Z,5.66
2023-01-27T10:53:51.031Z,5.71
2023-01-27T10:55:17.715Z,5.75
2023-01-27T10:56:35.903Z,5.79
2023-01-27T10:57:41.813Z,5.78
2023-01-27T10:58:46.252Z,5.78
2023-01-27T11:00:05.307Z,5.83
2023-01-27T11:01:20.760Z,5.88
2023-01-27T11:02:37.824Z,5.95
2023-01-27T11:03:48.713Z,5.98
2023-01-27T11:04:56.696Z,6.00
2023-01-27T11:06:03.151Z,6.05
2023-01-27T11:07:06.685Z,6.08
2023-01-27T11:08:21.030Z,6.10
2023-01-27T11:09:29.270Z,6.11
2023-01-27T11:10:39.098Z,6.07
2023-01-27T11:11:46.165Z,6.08
2023-01-27T11:12:54.606Z,6.09
2023-01-27T11:14:07.124Z,6.11
2023-01-27T11:15:30.321Z,6.12
2023-01-27T11:16:40.153Z,6.13
2023-01-27T11:18:07.414Z,6.17
2023-01-27T11:19:30.889Z,6.22
2023-01-27T11:21:01.521Z,6.20
2023-01-27T11:22:10.304Z,6.25
2023-01-27T11:23:21.159Z,6.29
2023-01-27T11:24:39.442Z,6.31
2023-01-27T11:26:11.715Z,6.24
2023-01-27T11:27:25.481Z,5.97
2023-01-27T11:28:52.100Z,5.78
2023-01-27T11:30:08.533Z,5.82
2023-01-27T11:31:38.214Z,5.82
2023-01-27T11:33:15.215Z,5.56
2023-01-27T11:34:24.849Z,5.46
2023-01-27T11:35:26.731Z,5.51
2023-01-27T11:36:28.339Z,5.62
2023-01-27T11:37:37.313Z,5.69
2023-01-27T11:38:38.905Z,5.78
2023-01-27T11:39:40.525Z,5.83
2023-01-27T11:40:42.711Z,5.91
2023-01-27T11:41:52.168Z,6.01
2023-01-27T11:42:59.806Z,6.08
2023-01-27T11:44:06.390Z,6.11
2023-01-27T11:45:14.783Z,6.19
2023-01-27T11:46:24.364Z,6.25
2023-01-27T11:47:38.747Z,6.18
2023-01-27T11:48:47.426Z,6.20
2023-01-27T11:49:52.314Z,6.23
2023-01-27T11:50:53.908Z,6.27
2023-01-27T11:52:15.649Z,6.26
2023-01-27T11:53:17.398Z,6.26
2023-01-27T11:54:23.583Z,6.24
2023-01-27T11:55:32.095Z,6.12
2023-01-27T11:56:36.461Z,6.10
2023-01-27T11:57:42.793Z,6.10
2023-01-27T11:59:00.191Z,6.09
2023-01-27T12:00:08.102Z,6.19
2023-01-27T12:01:22.504Z,6.08
2023-01-27T12:02:44.414Z,6.01
2023-01-27T12:04:22.005Z,5.97
2023-01-27T12:05:48.810Z,5.96
2023-01-27T12:06:59.532Z,5.98
2023-01-27T12:08:03.802Z,5.96
2023-01-27T12:09:05.387Z,5.98
2023-01-27T12:10:38.809Z,6.06
2023-01-27T12:11:40.399Z,6.09
2023-01-27T12:12:44.492Z,6.12
2023-01-27T12:13:56.092Z,6.19
2023-01-27T12:15:03.061Z,6.23
2023-01-27T12:16:05.569Z,6.26
2023-01-27T12:17:08.623Z,6.26
2023-01-27T12:18:14.981Z,6.03
2023-01-27T12:19:28.641Z,5.73
2023-01-27T12:20:32.965Z,5.77
2023-01-27T12:21:48.178Z,5.79
2023-01-27T12:23:01.073Z,5.77
2023-01-27T12:24:03.345Z,5.81
2023-01-27T12:25:14.038Z,5.89
2023-01-27T12:26:16.124Z,5.77
2023-01-27T12:27:24.454Z,5.81
2023-01-27T12:28:33.786Z,5.85
2023-01-27T12:29:47.891Z,5.90
2023-01-27T12:30:51.411Z,5.92
2023-01-27T12:31:55.864Z,5.93
2023-01-27T12:32:58.956Z,5.95
2023-01-27T12:34:08.181Z,5.86
2023-01-27T12:35:20.692Z,5.82
2023-01-27T12:36:23.539Z,5.82
2023-01-27T12:37:33.234Z,5.88
2023-01-27T12:38:36.524Z,5.85
2023-01-27T12:39:57.374Z,5.89
2023-01-27T12:41:10.377Z,5.90
2023-01-27T12:42:35.932Z,5.91
2023-01-27T12:44:07.633Z,5.92
2023-01-27T12:45:35.026Z,5.87
2023-01-27T12:46:40.498Z,5.89
2023-01-27T12:47:58.707Z,5.85
2023-01-27T12:49:20.711Z,5.88
2023-01-27T12:50:31.829Z,5.92
2023-01-27T12:51:41.034Z,5.96
2023-01-27T12:52:42.707Z,5.98
2023-01-27T12:53:44.336Z,5.97
2023-01-27T12:54:46.296Z,5.99
2023-01-27T12:56:10.067Z,5.92
2023-01-27T12:57:19.684Z,5.85
2023-01-27T12:58:47.052Z,5.84
2023-01-27T12:59:55.179Z,5.87
2023-01-27T13:00:58.231Z,5.88
2023-01-27T13:02:19.140Z,5.83
2023-01-27T13:03:22.386Z,5.80
2023-01-27T13:04:28.905Z,5.70
2023-01-27T13:05:39.623Z,5.75
2023-01-27T13:06:44.205Z,5.76
2023-01-27T13:07:49.438Z,5.81
2023-01-27T13:08:52.578Z,5.84
2023-01-27T13:10:06.750Z,5.84
2023-01-27T13:11:08.698Z,5.84
2023-01-27T13:12:20.496Z,5.84
2023-01-27T13:13:28.327Z,5.87
2023-01-27T13:14:34.278Z,5.91
2023-01-27T13:15:35.925Z,5.95
2023-01-27T13:16:38.230Z,5.97
2023-01-27T13:17:48.144Z,6.00
2023-01-27T13:18:58.200Z,6.02
2023-01-27T13:20:05.250Z,5.95
2023-01-27T13:21:18.221Z,5.72
2023-01-27T13:22:22.163Z,5.53
2023-01-27T13:23:29.294Z,5.54
2023-01-27T13:24:41.293Z,5.58
2023-01-27T13:26:04.916Z,5.64
2023-01-27T13:27:15.773Z,5.71
2023-01-27T13:28:51.273Z,5.74
2023-01-27T13:30:10.204Z,5.72
2023-01-27T13:31:27.373Z,5.68
2023-01-27T13:32:33.274Z,5.50
2023-01-27T13:33:49.684Z,5.30
2023-01-27T13:35:19.238Z,5.32
2023-01-27T13:36:35.424Z,5.40
2023-01-27T13:37:55.650Z,5.33
2023-01-27T13:39:06.887Z,5.17
2023-01-27T13:40:21.048Z,5.04
2023-01-27T13:41:32.519Z,4.96
2023-01-27T13:42:41.273Z,4.95
2023-01-27T13:43:56.059Z,4.90
2023-01-27T13:45:05.595Z,4.94
2023-01-27T13:46:21.493Z,4.81
2023-01-27T13:47:48.767Z,4.92
2023-01-27T13:49:08.507Z,4.89
2023-01-27T13:50:22.180Z,4.93
2023-01-27T13:51:28.038Z,4.92
2023-01-27T13:52:29.585Z,4.94
2023-01-27T13:53:31.270Z,4.96
2023-01-27T13:54:33.072Z,4.92
2023-01-27T13:55:40.615Z,4.85
2023-01-27T13:57:00.476Z,4.78
2023-01-27T13:58:09.507Z,4.70
2023-01-27T13:59:32.131Z,4.66
2023-01-27T14:01:15.851Z,4.65
2023-01-27T14:02:48.829Z,4.62
2023-01-27T14:04:12.133Z,4.51
2023-01-27T14:05:25.889Z,4.45
2023-01-27T14:06:44.074Z,4.33
2023-01-27T14:08:04.335Z,4.21
2023-01-27T14:09:21.885Z,4.19
2023-01-27T14:10:38.076Z,4.16
2023-01-27T14:11:51.187Z,4.09
2023-01-27T14:13:18.903Z,4.09
2023-01-27T14:14:52.469Z,4.07
2023-01-27T14:16:23.002Z,4.00
2023-01-27T14:17:39.562Z,3.91
2023-01-27T14:18:49.425Z,3.86
2023-01-27T14:20:07.836Z,3.85
2023-01-27T14:21:43.959Z,3.84
2023-01-27T14:23:12.519Z,3.78
2023-01-27T14:24:44.616Z,3.71
2023-01-27T14:26:24.001Z,3.76
2023-01-27T14:27:53.107Z,3.71
2023-01-27T14:29:03.700Z,3.70
2023-01-27T14:30:23.187Z,3.73
2023-01-27T14:31:52.723Z,3.74
2023-01-27T14:33:21.112Z,3.73
2023-01-27T14:34:28.412Z,3.75
2023-01-27T14:35:48.741Z,3.77
2023-01-27T14:37:03.216Z,3.72
2023-01-27T14:38:07.900Z,3.69
2023-01-27T14:39:18.599Z,3.69
2023-01-27T14:40:28.165Z,3.63
2023-01-27T14:41:57.615Z,3.61
2023-01-27T14:43:01.753Z,3.59
2023-01-27T14:44:07.424Z,3.61
2023-01-27T14:45:14.914Z,3.65
2023-01-27T14:46:48.057Z,3.64
2023-01-27T14:48:21.492Z,3.65
2023-01-27T14:49:44.411Z,3.63
2023-01-27T14:51:04.316Z,3.54
2023-01-27T14:52:25.674Z,3.48
2023-01-27T14:53:39.301Z,3.50